createdAt,value
2023-02-01T00:01:06.930Z,100429.41
2023-02-01T00:03:33.602Z,100423.81
2023-02-01T00:06:00.744Z,100422.72
2023-02-01T00:08:28.286Z,100423.41
2023-02-01T00:11:09.504Z,100419.81
2023-02-01T00:13:41.014Z,100420.00
2023-02-01T00:16:18.977Z,100417.06
2023-02-01T00:18:50.009Z,100408.75
2023-02-01T00:21:19.806Z,100405.59
2023-02-01T00:23:46.398Z,100415.09
2023-02-01T00:26:18.782Z,100412.09
2023-02-01T00:28:46.458Z,100408.59
2023-02-01T00:31:13.181Z,100411.66
2023-02-01T00:33:39.895Z,100421.53
2023-02-01T00:36:08.665Z,100421.28
2023-02-01T00:38:38.350Z,100435.59
2023-02-01T00:41:08.019Z,100426.44
2023-02-01T00:43:35.303Z,100425.97
2023-02-01T00:46:02.372Z,100422.41
2023-02-01T00:48:29.277Z,100425.31
2023-02-01T00:50:59.656Z,100416.28
2023-02-01T00:53:26.196Z,100398.28
2023-02-01T00:55:52.759Z,100400.84
2023-02-01T00:58:19.704Z,100404.47
2023-02-01T01:00:47.508Z,100389.94
2023-02-01T01:03:20.148Z,100401.34
2023-02-01T01:05:47.458Z,100401.94
2023-02-01T01:08:14.802Z,100399.75
2023-02-01T01:10:42.116Z,100402.63
2023-02-01T01:13:09.527Z,100397.56
2023-02-01T01:15:40.801Z,100397.84
2023-02-01T01:18:08.170Z,100382.16
2023-02-01T01:20:36.425Z,100375.09
2023-02-01T01:23:04.185Z,100377.28
2023-02-01T01:25:33.211Z,100363.47
2023-02-01T01:27:59.768Z,100356.19
2023-02-01T01:30:26.386Z,100371.13
2023-02-01T01:32:53.427Z,100344.97
2023-02-01T01:35:20.021Z,100367.59
2023-02-01T01:37:46.570Z,100352.16
2023-02-01T01:40:13.728Z,100365.44
2023-02-01T01:42:44.939Z,100355.34
2023-02-01T01:45:37.892Z,100347.03
2023-02-01T01:48:14.677Z,100348.41
2023-02-01T01:50:49.340Z,100346.00
2023-02-01T01:53:19.322Z,100355.16
2023-02-01T01:55:49.358Z,100355.84
2023-02-01T01:58:22.133Z,100352.16
2023-02-01T02:00:49.193Z,100346.16
2023-02-01T02:03:26.582Z,100344.19
2023-02-01T02:05:56.403Z,100343.44
2023-02-01T02:08:25.868Z,100357.47
2023-02-01T02:11:02.200Z,100341.88
2023-02-01T02:13:49.476Z,100357.94
2023-02-01T02:16:32.728Z,100350.63
2023-02-01T02:19:11.344Z,100346.63
2023-02-01T02:21:53.470Z,100345.00
2023-02-01T02:24:34.246Z,100339.81
2023-02-01T02:27:34.646Z,100337.34
2023-02-01T02:30:23.344Z,100350.09
2023-02-01T02:33:29.396Z,100343.00
2023-02-01T02:36:20.072Z,100339.63
2023-02-01T02:38:49.560Z,100341.47
2023-02-01T02:41:51.530Z,100332.63
2023-02-01T02:45:04.421Z,100348.13
2023-02-01T02:47:42.330Z,100334.38
2023-02-01T02:51:00.949Z,100339.00
2023-02-01T02:54:09.264Z,100339.88
2023-02-01T02:56:55.369Z,100336.81
2023-02-01T02:59:43.724Z,100341.50
2023-02-01T03:02:29.782Z,100335.66
2023-02-01T03:04:57.453Z,100335.94
2023-02-01T03:07:45.591Z,100338.72
2023-02-01T03:10:24.426Z,100324.03
2023-02-01T03:12:57.014Z,100334.31
2023-02-01T03:15:32.808Z,100325.31
2023-02-01T03:18:02.882Z,100325.31
2023-02-01T03:20:31.133Z,100325.66
2023-02-01T03:22:59.890Z,100322.41
2023-02-01T03:25:33.495Z,100328.84
2023-02-01T03:28:07.229Z,100313.53
2023-02-01T03:30:44.395Z,100319.25
2023-02-01T03:33:22.085Z,100327.31
2023-02-01T03:36:11.038Z,100317.56
2023-02-01T03:38:43.456Z,100317.41
2023-02-01T03:41:19.000Z,100305.13
2023-02-01T03:43:57.021Z,100305.09
2023-02-01T03:46:48.446Z,100306.66
2023-02-01T03:49:21.020Z,100302.97
2023-02-01T03:51:50.055Z,100293.09
2023-02-01T03:54:18.940Z,100296.53
2023-02-01T03:56:48.753Z,100306.03
2023-02-01T03:59:15.926Z,100289.44
2023-02-01T04:01:42.847Z,100289.44
2023-02-01T04:04:10.431Z,100293.09
2023-02-01T04:06:37.106Z,100288.16
2023-02-01T04:09:03.795Z,100295.00
2023-02-01T04:11:30.385Z,100297.66
2023-02-01T04:13:57.008Z,100304.94
2023-02-01T04:16:23.665Z,100289.34
2023-02-01T04:21:18.410Z,100304.38
2023-02-01T04:23:45.002Z,100295.56
2023-02-01T04:26:11.594Z,100298.22
2023-02-01T04:28:38.288Z,100300.09
2023-02-01T04:31:05.224Z,100300.41
2023-02-01T04:33:32.814Z,100306.59
2023-02-01T04:35:59.516Z,100302.16
2023-02-01T04:38:26.443Z,100313.53
2023-02-01T04:40:52.976Z,100314.13
2023-02-01T04:43:19.593Z,100312.06
2023-02-01T04:45:50.574Z,100317.56
2023-02-01T04:48:22.263Z,100314.09
2023-02-01T04:50:49.873Z,100309.72
2023-02-01T04:53:16.958Z,100297.59
2023-02-01T04:55:44.403Z,100308.31
2023-02-01T04:58:11.687Z,100318.28
2023-02-01T05:00:38.380Z,100319.13
2023-02-01T05:03:04.979Z,100314.69
2023-02-01T05:05:31.631Z,100309.34
2023-02-01T05:07:58.261Z,100314.22
2023-02-01T05:10:25.141Z,100322.97
2023-02-01T05:13:10.696Z,100311.88
2023-02-01T05:15:37.370Z,100311.78
2023-02-01T05:18:04.145Z,100324.72
2023-02-01T05:20:30.683Z,100313.19
2023-02-01T05:22:57.247Z,100314.16
2023-02-01T05:25:23.899Z,100308.84
2023-02-01T05:27:50.527Z,100308.91
2023-02-01T05:30:17.529Z,100314.34
2023-02-01T05:32:44.099Z,100313.28
2023-02-01T05:35:11.037Z,100300.94
2023-02-01T05:37:37.668Z,100296.28
2023-02-01T05:40:04.829Z,100297.44
2023-02-01T05:42:31.435Z,100305.00
2023-02-01T05:44:58.047Z,100310.44
2023-02-01T05:47:24.702Z,100305.13
2023-02-01T05:49:51.348Z,100310.44
2023-02-01T05:52:20.397Z,100311.28
2023-02-01T05:54:48.292Z,100305.88
2023-02-01T05:57:15.291Z,100311.38
2023-02-01T05:59:42.142Z,100315.56
2023-02-01T06:02:10.998Z,100301.13
2023-02-01T06:04:37.609Z,100335.81
2023-02-01T06:07:04.249Z,100327.66
2023-02-01T06:09:30.822Z,100338.38
2023-02-01T06:11:57.431Z,100326.97
2023-02-01T06:14:25.433Z,100330.84
2023-02-01T06:16:51.998Z,100314.34
2023-02-01T06:19:18.547Z,100342.38
2023-02-01T06:21:45.512Z,100346.66
2023-02-01T06:24:12.227Z,100357.03
2023-02-01T06:26:40.098Z,100348.38
2023-02-01T06:29:07.739Z,100352.66
2023-02-01T06:31:34.682Z,100358.06
2023-02-01T06:34:01.416Z,100354.44
2023-02-01T06:36:27.986Z,100352.75
2023-02-01T06:38:54.949Z,100359.97
2023-02-01T06:41:21.660Z,100363.50
2023-02-01T06:43:48.305Z,100360.72
2023-02-01T06:46:15.224Z,100349.91
2023-02-01T06:48:42.245Z,100355.16
2023-02-01T06:51:23.435Z,100352.28
2023-02-01T06:53:50.074Z,100359.25
2023-02-01T06:56:16.651Z,100353.75
2023-02-01T06:58:43.589Z,100347.66
2023-02-01T07:01:11.665Z,100347.56
2023-02-01T07:03:39.336Z,100353.91
2023-02-01T07:06:06.562Z,100354.13
2023-02-01T07:08:35.044Z,100354.13
2023-02-01T07:11:09.692Z,100370.19
2023-02-01T07:13:36.244Z,100353.16
2023-02-01T07:16:05.282Z,100370.59
2023-02-01T07:18:32.790Z,100370.38
2023-02-01T07:21:00.136Z,100374.75
2023-02-01T07:23:27.998Z,100363.84
2023-02-01T07:25:56.692Z,100379.44
2023-02-01T07:28:23.435Z,100388.09
2023-02-01T07:30:52.019Z,100397.50
2023-02-01T07:33:24.019Z,100387.25
2023-02-01T07:35:51.895Z,100391.31
2023-02-01T07:38:18.811Z,100396.94
2023-02-01T07:40:45.414Z,100401.78
2023-02-01T07:43:12.000Z,100411.31
2023-02-01T07:45:38.630Z,100398.44
2023-02-01T07:48:05.665Z,100404.16
2023-02-01T07:50:32.648Z,100397.78
2023-02-01T07:53:02.354Z,100399.19
2023-02-01T07:55:29.328Z,100400.41
2023-02-01T07:57:59.343Z,100404.38
2023-02-01T08:00:45.252Z,100402.28
2023-02-01T08:03:11.856Z,100409.69
2023-02-01T08:05:38.683Z,100398.53
2023-02-01T08:08:05.725Z,100405.34
2023-02-01T08:10:32.376Z,100399.72
2023-02-01T08:13:00.938Z,100405.09
2023-02-01T08:15:29.151Z,100395.75
2023-02-01T08:17:56.160Z,100408.03
2023-02-01T08:20:27.192Z,100404.19
2023-02-01T08:22:55.740Z,100416.78
2023-02-01T08:25:23.240Z,100428.91
2023-02-01T08:27:50.317Z,100431.03
2023-02-01T08:30:17.321Z,100450.06
2023-02-01T08:32:43.967Z,100458.94
2023-02-01T08:35:10.545Z,100458.38
2023-02-01T08:37:37.387Z,100452.38
2023-02-01T08:40:05.216Z,100453.03
2023-02-01T08:42:50.524Z,100453.19
2023-02-01T08:45:17.624Z,100443.06
2023-02-01T08:47:44.264Z,100442.09
2023-02-01T08:50:11.509Z,100434.31
2023-02-01T08:52:38.417Z,100432.22
2023-02-01T08:55:06.664Z,100440.81
2023-02-01T08:57:34.300Z,100435.16
2023-02-01T09:00:01.283Z,100436.25
2023-02-01T09:02:28.418Z,100434.84
2023-02-01T09:04:56.901Z,100430.66
2023-02-01T09:07:23.662Z,100436.53
2023-02-01T09:09:51.431Z,100433.66
2023-02-01T09:12:17.993Z,100441.19
2023-02-01T09:14:44.618Z,100428.00
2023-02-01T09:17:11.287Z,100422.72
2023-02-01T09:19:42.946Z,100417.97
2023-02-01T09:22:09.700Z,100424.09
2023-02-01T09:24:36.255Z,100422.31
2023-02-01T09:27:02.965Z,100412.09
2023-02-01T09:29:29.735Z,100410.59
2023-02-01T09:32:03.428Z,100399.78
2023-02-01T09:34:31.205Z,100412.59
2023-02-01T09:36:57.813Z,100420.66
2023-02-01T09:39:24.562Z,100432.25
2023-02-01T09:41:55.139Z,100430.13
2023-02-01T09:44:30.087Z,100449.16
2023-02-01T09:47:02.459Z,100428.16
2023-02-01T09:49:35.553Z,100435.75
2023-02-01T09:52:06.124Z,100432.69
2023-02-01T09:54:48.323Z,100436.88
2023-02-01T09:57:24.842Z,100418.66
2023-02-01T10:00:01.740Z,100416.13
2023-02-01T10:02:29.700Z,100432.44
2023-02-01T10:04:59.109Z,100409.53
2023-02-01T10:07:37.482Z,100412.44
2023-02-01T10:10:11.718Z,100401.31
2023-02-01T10:13:02.972Z,100400.06
2023-02-01T10:15:57.625Z,100387.66
2023-02-01T10:18:53.060Z,100367.41
2023-02-01T10:21:32.139Z,100378.47
2023-02-01T10:24:18.274Z,100365.06
2023-02-01T10:26:57.837Z,100365.22
2023-02-01T10:29:29.162Z,100364.53
2023-02-01T10:31:56.297Z,100362.09
2023-02-01T10:34:28.049Z,100366.88
2023-02-01T10:37:01.686Z,100352.31
2023-02-01T10:39:28.528Z,100346.59
2023-02-01T10:41:56.796Z,100339.47
2023-02-01T10:44:27.487Z,100346.22
2023-02-01T10:46:54.059Z,100342.16
2023-02-01T10:49:37.926Z,100339.28
2023-02-01T10:52:18.361Z,100350.31
2023-02-01T10:54:45.018Z,100356.31
2023-02-01T10:57:22.210Z,100359.91
2023-02-01T10:59:48.855Z,100366.13
2023-02-01T11:02:24.134Z,100348.22
2023-02-01T11:04:50.937Z,100346.88
2023-02-01T11:07:25.044Z,100343.66
2023-02-01T11:09:57.492Z,100330.59
2023-02-01T11:12:33.476Z,100325.69
2023-02-01T11:15:25.771Z,100318.47
2023-02-01T11:17:53.812Z,100314.56
2023-02-01T11:20:40.504Z,100323.81
2023-02-01T11:23:15.634Z,100322.00
2023-02-01T11:25:59.105Z,100319.44
2023-02-01T11:28:39.537Z,100314.72
2023-02-01T11:31:11.228Z,100317.94
2023-02-01T11:33:44.375Z,100312.34
2023-02-01T11:36:17.043Z,100309.81
2023-02-01T11:38:53.813Z,100306.31
2023-02-01T11:41:28.286Z,100303.19
2023-02-01T11:44:00.301Z,100307.00
2023-02-01T11:46:34.790Z,100302.28
2023-02-01T11:49:16.691Z,100283.72
2023-02-01T11:52:29.551Z,100287.16
2023-02-01T11:55:07.377Z,100279.84
2023-02-01T11:57:53.943Z,100274.63
2023-02-01T12:00:43.665Z,100278.78
2023-02-01T12:03:34.738Z,100274.66
2023-02-01T12:06:36.627Z,100268.88
2023-02-01T12:09:32.327Z,100263.75
2023-02-01T12:12:55.883Z,100270.06
2023-02-01T12:15:48.533Z,100263.97
2023-02-01T12:18:41.145Z,100274.75
2023-02-01T12:21:20.052Z,100281.72
2023-02-01T12:23:52.696Z,100280.75
2023-02-01T12:26:36.383Z,100285.66
2023-02-01T12:29:17.639Z,100285.84
2023-02-01T12:31:59.141Z,100295.84
2023-02-01T12:34:37.907Z,100301.44
2023-02-01T12:37:26.391Z,100313.09
2023-02-01T12:40:12.103Z,100307.91
2023-02-01T12:42:55.780Z,100316.56
2023-02-01T12:45:28.147Z,100311.81
2023-02-01T12:48:19.902Z,100303.34
2023-02-01T12:50:52.731Z,100315.03
2023-02-01T12:53:31.549Z,100306.31
2023-02-01T12:56:12.451Z,100290.22
2023-02-01T12:58:45.749Z,100288.50
2023-02-01T13:01:27.199Z,100279.69
2023-02-01T13:04:01.034Z,100265.59
2023-02-01T13:06:44.345Z,100260.59
2023-02-01T13:09:28.472Z,100242.91
2023-02-01T13:12:00.624Z,100230.56
2023-02-01T13:14:34.911Z,100237.19
2023-02-01T13:17:05.861Z,100243.19
2023-02-01T13:19:53.935Z,100241.97
2023-02-01T13:22:30.105Z,100249.06
2023-02-01T13:25:05.241Z,100231.47
2023-02-01T13:27:33.707Z,100226.88
2023-02-01T13:30:02.564Z,100227.50
2023-02-01T13:33:51.343Z,100218.00
2023-02-01T13:35:42.953Z,100209.56
2023-02-01T13:38:40.147Z,100225.72
2023-02-01T13:41:29.488Z,100232.84
2023-02-01T13:44:07.238Z,100226.78
2023-02-01T13:46:44.234Z,100229.25
2023-02-01T13:49:22.847Z,100234.59
2023-02-01T13:51:56.110Z,100241.63
2023-02-01T13:54:39.093Z,100236.63
2023-02-01T13:57:25.052Z,100233.31
2023-02-01T13:59:53.423Z,100232.94
2023-02-01T14:02:41.731Z,100235.41
2023-02-01T14:05:35.063Z,100238.72
2023-02-01T14:08:11.104Z,100235.56
2023-02-01T14:10:58.387Z,100215.97
2023-02-01T14:13:39.351Z,100218.16
2023-02-01T14:16:06.688Z,100223.31
2023-02-01T14:18:39.085Z,100216.50
2023-02-01T14:21:22.301Z,100213.28
2023-02-01T14:24:03.059Z,100214.25
2023-02-01T14:26:35.967Z,100221.03
2023-02-01T14:29:26.363Z,100233.59
2023-02-01T14:31:52.941Z,100231.03
2023-02-01T14:34:31.701Z,100235.84
2023-02-01T14:37:09.677Z,100230.22
2023-02-01T14:39:56.508Z,100234.94
2023-02-01T14:42:43.399Z,100236.59
2023-02-01T14:45:28.810Z,100240.22
2023-02-01T14:47:55.536Z,100240.91
2023-02-01T14:50:33.203Z,100241.22
2023-02-01T14:53:21.413Z,100236.44
2023-02-01T14:56:10.157Z,100244.88
2023-02-01T14:58:48.504Z,100241.34
2023-02-01T15:01:26.662Z,100214.13
2023-02-01T15:03:56.609Z,100244.31
2023-02-01T15:06:45.333Z,100249.09
2023-02-01T15:09:25.276Z,100236.72
2023-02-01T15:11:57.720Z,100244.09
2023-02-01T15:14:25.234Z,100233.69
2023-02-01T15:16:54.807Z,100227.63
2023-02-01T15:19:26.975Z,100230.63
2023-02-01T15:21:56.249Z,100237.75
2023-02-01T15:24:29.213Z,100235.41
2023-02-01T15:26:57.292Z,100230.47
2023-02-01T15:29:28.920Z,100230.78
2023-02-01T15:31:56.052Z,100229.91
2023-02-01T15:34:22.819Z,100231.94
2023-02-01T15:37:02.658Z,100222.25
2023-02-01T15:39:32.460Z,100228.81
2023-02-01T15:42:11.608Z,100230.63
2023-02-01T15:44:46.781Z,100229.78
2023-02-01T15:47:21.011Z,100230.00
2023-02-01T15:49:53.203Z,100223.16
2023-02-01T15:52:35.298Z,100237.94
2023-02-01T15:55:06.195Z,100233.75
2023-02-01T15:57:36.967Z,100239.06
2023-02-01T16:00:28.392Z,100236.88
2023-02-01T16:03:00.822Z,100238.28
2023-02-01T16:05:38.135Z,100257.28
2023-02-01T16:08:14.964Z,100265.22
2023-02-01T16:10:47.702Z,100256.50
2023-02-01T16:13:15.901Z,100288.22
2023-02-01T16:15:42.701Z,100265.94
2023-02-01T16:18:12.963Z,100274.97
2023-02-01T16:20:41.857Z,100285.84
2023-02-01T16:23:10.533Z,100281.28
2023-02-01T16:25:38.673Z,100278.91
2023-02-01T16:28:06.418Z,100270.06
2023-02-01T16:30:33.795Z,100277.19
2023-02-01T16:33:03.632Z,100274.84
2023-02-01T16:35:38.405Z,100266.84
2023-02-01T16:38:15.151Z,100271.84
2023-02-01T16:40:44.199Z,100254.69
2023-02-01T16:43:17.774Z,100257.19
2023-02-01T16:45:49.372Z,100262.28
2023-02-01T16:48:36.416Z,100253.97
2023-02-01T16:51:08.719Z,100247.03
2023-02-01T16:53:48.290Z,100252.78
2023-02-01T16:56:29.738Z,100245.09
2023-02-01T16:58:56.389Z,100247.97
2023-02-01T17:01:24.045Z,100238.66
2023-02-01T17:03:52.511Z,100229.81
2023-02-01T17:06:22.850Z,100234.38
2023-02-01T17:08:53.879Z,100242.78
2023-02-01T17:11:20.972Z,100237.88
2023-02-01T17:13:47.878Z,100236.63
2023-02-01T17:16:20.674Z,100227.97
2023-02-01T17:19:12.509Z,100227.97
2023-02-01T17:21:55.042Z,100233.59
2023-02-01T17:24:25.885Z,100230.63
2023-02-01T17:26:53.833Z,100225.31
2023-02-01T17:29:21.089Z,100225.09
2023-02-01T17:31:54.880Z,100234.91
2023-02-01T17:34:22.340Z,100246.63
2023-02-01T17:36:49.664Z,100220.38
2023-02-01T17:39:36.571Z,100220.47
2023-02-01T17:42:09.200Z,100230.91
2023-02-01T17:44:35.788Z,100229.88
2023-02-01T17:47:02.346Z,100229.22
2023-02-01T17:49:29.017Z,100220.81
2023-02-01T17:51:57.569Z,100228.38
2023-02-01T17:54:25.852Z,100227.59
2023-02-01T17:56:52.716Z,100233.91
2023-02-01T17:59:19.337Z,100236.56
2023-02-01T18:01:45.998Z,100246.88
2023-02-01T18:04:14.674Z,100245.06
2023-02-01T18:06:41.275Z,100246.00
2023-02-01T18:09:09.151Z,100241.56
2023-02-01T18:11:35.868Z,100258.09
2023-02-01T18:14:02.972Z,100258.38
2023-02-01T18:16:32.592Z,100256.75
2023-02-01T18:19:02.486Z,100257.63
2023-02-01T18:21:49.328Z,100261.53
2023-02-01T18:24:17.298Z,100262.47
2023-02-01T18:26:43.970Z,100272.31
2023-02-01T18:29:10.594Z,100262.47
2023-02-01T18:31:48.141Z,100266.84
2023-02-01T18:34:21.332Z,100248.22
2023-02-01T18:36:51.363Z,100247.94
2023-02-01T18:39:18.022Z,100262.13
2023-02-01T18:41:46.713Z,100267.25
2023-02-01T18:44:17.111Z,100252.03
2023-02-01T18:46:44.071Z,100253.94
2023-02-01T18:49:13.950Z,100243.84
2023-02-01T18:51:40.585Z,100244.78
2023-02-01T18:54:09.941Z,100264.56
2023-02-01T18:56:36.509Z,100256.28
2023-02-01T18:59:03.088Z,100236.47
2023-02-01T19:01:29.658Z,100254.47
2023-02-01T19:04:01.854Z,100241.16
2023-02-01T19:06:31.557Z,100245.59
2023-02-01T19:08:58.153Z,100247.31
2023-02-01T19:11:24.859Z,100235.91
2023-02-01T19:13:51.924Z,100244.97
2023-02-01T19:16:18.549Z,100239.13
2023-02-01T19:18:45.136Z,100235.41
2023-02-01T19:21:13.664Z,100236.25
2023-02-01T19:23:41.613Z,100227.31
2023-02-01T19:26:16.130Z,100229.22
2023-02-01T19:28:46.895Z,100222.94
2023-02-01T19:31:13.874Z,100208.94
2023-02-01T19:33:40.553Z,100211.06
2023-02-01T19:36:09.862Z,100208.53
2023-02-01T19:38:36.807Z,100210.31
2023-02-01T19:41:03.559Z,100206.03
2023-02-01T19:43:30.178Z,100197.97
2023-02-01T19:45:57.547Z,100198.41
2023-02-01T19:48:25.769Z,100200.56
2023-02-01T19:50:52.500Z,100196.09
2023-02-01T19:53:24.573Z,100196.81
2023-02-01T19:55:51.169Z,100195.22
2023-02-01T19:58:17.750Z,100199.50
2023-02-01T20:00:43.455Z,100207.84
2023-02-01T20:03:10.190Z,100206.34
2023-02-01T20:05:37.068Z,100199.72
2023-02-01T20:08:03.996Z,100212.00
2023-02-01T20:10:30.729Z,100216.50
2023-02-01T20:12:57.386Z,100221.19
2023-02-01T20:15:27.008Z,100220.22
2023-02-01T20:17:53.782Z,100215.63
2023-02-01T20:20:20.352Z,100207.53
2023-02-01T20:22:46.921Z,100205.75
2023-02-01T20:25:13.619Z,100198.81
2023-02-01T20:27:41.134Z,100198.25
2023-02-01T20:30:08.599Z,100206.13
2023-02-01T20:32:35.184Z,100210.63
2023-02-01T20:35:01.751Z,100210.81
2023-02-01T20:37:28.347Z,100215.06
2023-02-01T20:39:54.946Z,100221.06
2023-02-01T20:42:21.535Z,100230.47
2023-02-01T20:44:48.201Z,100238.59
2023-02-01T20:47:14.786Z,100241.19
2023-02-01T20:49:41.363Z,100250.16
2023-02-01T20:52:07.995Z,100246.25
2023-02-01T20:54:34.640Z,100259.03
2023-02-01T20:57:01.489Z,100269.13
2023-02-01T20:59:28.154Z,100265.94
2023-02-01T21:01:54.959Z,100238.47
2023-02-01T21:04:27.341Z,100237.59
2023-02-01T21:06:55.700Z,100249.22
2023-02-01T21:09:23.981Z,100243.16
2023-02-01T21:11:50.858Z,100255.72
2023-02-01T21:14:17.783Z,100248.69
2023-02-01T21:16:44.360Z,100249.53
2023-02-01T21:19:10.993Z,100238.41
2023-02-01T21:21:37.612Z,100236.72
2023-02-01T21:24:04.626Z,100226.53
2023-02-01T21:26:41.113Z,100238.34
2023-02-01T21:29:13.654Z,100226.94
2023-02-01T21:31:41.407Z,100232.38
2023-02-01T21:34:08.851Z,100237.91
2023-02-01T21:36:36.133Z,100231.06
2023-02-01T21:39:05.650Z,100236.78
2023-02-01T21:41:52.392Z,100248.28
2023-02-01T21:44:19.568Z,100246.28
2023-02-01T21:46:46.439Z,100258.72
2023-02-01T21:49:13.452Z,100257.03
2023-02-01T21:51:41.005Z,100249.03
2023-02-01T21:54:09.205Z,100251.88
2023-02-01T21:56:37.149Z,100247.41
2023-02-01T21:59:03.862Z,100245.81
2023-02-01T22:01:30.527Z,100252.66
2023-02-01T22:03:57.217Z,100241.88
2023-02-01T22:06:38.363Z,100238.47
2023-02-01T22:09:05.770Z,100218.88
2023-02-01T22:11:33.202Z,100213.09
2023-02-01T22:14:00.046Z,100209.41
2023-02-01T22:16:26.696Z,100205.00
2023-02-01T22:18:54.363Z,100200.53
2023-02-01T22:21:21.727Z,100203.19
2023-02-01T22:23:55.695Z,100199.66
2023-02-01T22:26:22.733Z,100192.56
2023-02-01T22:28:49.668Z,100189.78
2023-02-01T22:31:17.248Z,100184.75
2023-02-01T22:33:45.791Z,100190.28
2023-02-01T22:36:13.057Z,100190.19
2023-02-01T22:38:39.609Z,100196.56
2023-02-01T22:41:06.651Z,100184.75
2023-02-01T22:43:33.550Z,100177.84
2023-02-01T22:46:05.886Z,100187.53
2023-02-01T22:48:37.055Z,100177.53
2023-02-01T22:51:04.244Z,100197.00
2023-02-01T22:53:31.916Z,100199.66
2023-02-01T22:56:05.920Z,100184.56
2023-02-01T22:58:35.924Z,100179.06
2023-02-01T23:01:13.697Z,100182.66
2023-02-01T23:03:40.695Z,100170.28
2023-02-01T23:06:08.525Z,100169.44
2023-02-01T23:08:35.820Z,100159.06
2023-02-01T23:11:11.726Z,100165.38
2023-02-01T23:13:41.732Z,100163.84
2023-02-01T23:16:11.355Z,100153.97
2023-02-01T23:18:41.011Z,100164.22
2023-02-01T23:21:10.926Z,100162.00
2023-02-01T23:23:37.981Z,100174.47
2023-02-01T23:26:05.881Z,100163.50
2023-02-01T23:28:33.088Z,100160.66
2023-02-01T23:30:59.806Z,100144.28
2023-02-01T23:33:27.688Z,100142.56
2023-02-01T23:36:02.257Z,100134.69
2023-02-01T23:38:29.554Z,100132.19
2023-02-01T23:41:05.635Z,100122.31
2023-02-01T23:43:51.291Z,100138.09
2023-02-01T23:46:18.520Z,100136.69
2023-02-01T23:48:46.515Z,100131.16
2023-02-01T23:51:13.629Z,100124.13
2023-02-01T23:53:40.268Z,100133.81
2023-02-01T23:56:07.982Z,100136.69
2023-02-01T23:58:34.709Z,100121.94
